Time;durP1;ratioP1;P1;durP2;ratioP2;P2;SDS_P1;SDS_P2;PMS_P1;PMS_P2;Temp;Humidity;BMP_temperature;BMP_pressure;BME280_temperature;BME280_humidity;BME280_pressure;Samples;Min_cycle;Max_cycle;Signal;HPM_P1;HPM_P2
2023/09/03 00:00:17;;;;;;;;;2.00;1.00;;;;;25.03;100.00;101972.88;5054253;28;45976;-79
2023/09/03 00:02:43;;;;;;;;;2.00;1.33;;;;;24.97;100.00;101964.97;5052661;28;45490;-78
2023/09/03 00:05:08;;;;;;;;;3.00;2.00;;;;;24.97;100.00;101970.34;5054528;28;59637;-79
2023/09/03 00:07:33;;;;;;;;;2.33;2.33;;;;;24.95;100.00;101964.13;5041730;28;58820;-78
2023/09/03 00:09:59;;;;;;;;;1.00;1.00;;;;;24.91;100.00;101963.31;5054353;28;69919;-79
2023/09/03 00:12:24;;;;;;;;;4.00;2.67;;;;;24.90;100.00;101966.97;5051786;28;62626;-79
2023/09/03 00:14:49;;;;;;;;;3.00;1.67;;;;;24.88;100.00;101960.75;5051167;28;45542;-80
2023/09/03 00:17:15;;;;;;;;;2.00;2.00;;;;;24.88;100.00;101971.53;5043754;28;60415;-78
2023/09/03 00:19:41;;;;;;;;;1.67;1.67;;;;;24.86;100.00;101969.81;5056155;28;45606;-79
2023/09/03 00:22:06;;;;;;;;;2.00;2.00;;;;;24.85;100.00;101970.75;5042695;28;45613;-78
2023/09/03 00:24:34;;;;;;;;;2.00;2.00;;;;;24.85;100.00;101970.75;5055873;28;45588;-78
2023/09/03 00:27:00;;;;;;;;;2.00;2.00;;;;;24.83;100.00;101973.50;5054175;28;46603;-79
2023/09/03 00:29:26;;;;;;;;;3.00;3.00;;;;;24.79;100.00;101982.63;5058024;28;45437;-78
2023/09/03 00:31:51;;;;;;;;;2.00;2.00;;;;;24.75;100.00;101986.34;5050779;28;45443;-77
2023/09/03 00:34:17;;;;;;;;;1.00;1.00;;;;;24.75;100.00;101983.63;5061304;28;45474;-78
2023/09/03 00:36:42;;;;;;;;;3.67;2.00;;;;;24.72;100.00;101994.56;5051753;28;70001;-78
2023/09/03 00:39:07;;;;;;;;;4.33;3.00;;;;;24.74;100.00;101998.09;5057547;28;45462;-78
2023/09/03 00:41:33;;;;;;;;;2.00;2.00;;;;;24.70;100.00;101994.56;5052301;28;45512;-73
2023/09/03 00:43:58;;;;;;;;;3.67;2.00;;;;;24.66;100.00;101992.00;5064838;28;59366;-74
2023/09/03 00:46:23;;;;;;;;;2.00;2.00;;;;;24.61;100.00;101993.94;5055195;28;68883;-73
2023/09/03 00:48:49;;;;;;;;;4.00;2.67;;;;;24.56;100.00;101999.50;5063515;28;67357;-73
2023/09/03 00:51:15;;;;;;;;;5.00;3.00;;;;;24.53;100.00;101996.88;5050253;28;45499;-74
2023/09/03 00:53:45;;;;;;;;;4.00;3.00;;;;;24.52;100.00;102004.09;5059438;28;45574;-73
2023/09/03 00:56:11;;;;;;;;;2.33;2.33;;;;;24.54;100.00;101999.53;5056456;28;47408;-73
2023/09/03 00:58:36;;;;;;;;;3.00;3.00;;;;;24.50;100.00;102003.28;5054991;28;45638;-73
2023/09/03 01:01:04;;;;;;;;;3.00;3.00;;;;;24.46;100.00;101998.00;5049759;28;45583;-73
2023/09/03 01:03:29;;;;;;;;;2.33;2.33;;;;;24.42;100.00;101999.88;5064917;28;45555;-74
2023/09/03 01:05:55;;;;;;;;;4.00;2.00;;;;;24.39;100.00;102001.78;5052995;28;56529;-73
2023/09/03 01:08:20;;;;;;;;;2.00;1.67;;;;;24.36;100.00;102004.59;5056172;28;45569;-73
2023/09/03 01:11:18;;;;;;;;;2.00;2.00;;;;;24.29;100.00;101993.94;5043160;28;45439;-73
2023/09/03 01:14:00;;;;;;;;;2.00;2.00;;;;;24.27;100.00;101993.06;5050751;28;45588;-73
2023/09/03 01:16:40;;;;;;;;;3.00;2.00;;;;;24.27;100.00;101981.38;5053064;28;46643;-73
2023/09/03 01:19:28;;;;;;;;;3.67;3.00;;;;;24.26;100.00;101987.72;5057395;28;45507;-73
2023/09/03 01:21:57;;;;;;;;;2.00;2.00;;;;;24.20;100.00;101977.97;5050743;28;45451;-73
2023/09/03 01:24:40;;;;;;;;;3.00;3.00;;;;;24.18;100.00;101973.53;5069004;27;45689;-73
2023/09/03 01:27:24;;;;;;;;;4.67;4.00;;;;;24.15;100.00;101968.22;5062893;28;47161;-73
2023/09/03 01:29:50;;;;;;;;;3.00;3.00;;;;;24.12;100.00;101968.31;5047799;28;45418;-73
2023/09/03 01:32:16;;;;;;;;;5.67;5.67;;;;;24.10;100.00;101964.78;5052294;28;45431;-73
2023/09/03 01:34:43;;;;;;;;;2.33;2.33;;;;;24.03;100.00;101964.94;5058056;28;45638;-73
2023/09/03 01:37:09;;;;;;;;;4.00;2.00;;;;;24.02;100.00;101956.88;5061204;28;45560;-75
2023/09/03 01:39:34;;;;;;;;;4.00;4.00;;;;;23.96;100.00;101959.72;5053491;28;63843;-73
2023/09/03 01:42:00;;;;;;;;;3.00;3.00;;;;;23.92;100.00;101958.94;5049798;28;45386;-74
2023/09/03 01:44:25;;;;;;;;;4.00;3.00;;;;;23.87;100.00;101951.91;5063583;28;45496;-74
2023/09/03 01:46:56;;;;;;;;;3.00;3.00;;;;;23.84;100.00;101958.25;5062169;28;67771;-73
2023/09/03 01:49:35;;;;;;;;;2.00;2.00;;;;;23.80;100.00;101953.84;5063825;28;45544;-73
2023/09/03 01:52:29;;;;;;;;;5.00;4.00;;;;;23.76;100.00;101960.28;5079969;27;45475;-75
2023/09/03 01:54:56;;;;;;;;;2.00;2.00;;;;;23.71;100.00;101965.78;5060624;28;45405;-74
2023/09/03 01:57:27;;;;;;;;;3.00;3.00;;;;;23.70;100.00;101963.09;5053097;28;55177;-73
2023/09/03 01:59:55;;;;;;;;;3.33;3.33;;;;;23.66;100.00;101956.06;5053508;28;45658;-73
2023/09/03 02:02:20;;;;;;;;;5.00;3.00;;;;;23.63;100.00;101948.03;5049232;28;45554;-74
2023/09/03 02:04:46;;;;;;;;;3.67;3.00;;;;;23.62;100.00;101952.50;5056376;28;49291;-73
2023/09/03 02:07:12;;;;;;;;;3.00;3.00;;;;;23.60;100.00;101961.56;5049561;28;45402;-74
2023/09/03 02:09:37;;;;;;;;;3.00;3.00;;;;;23.58;100.00;101958.88;5049697;28;45450;-73
2023/09/03 02:12:03;;;;;;;;;2.00;2.00;;;;;23.55;100.00;101972.47;5055901;28;45785;-73
2023/09/03 02:14:28;;;;;;;;;3.00;3.00;;;;;23.56;100.00;101976.03;5055796;28;45752;-72
2023/09/03 02:16:54;;;;;;;;;4.00;4.00;;;;;23.55;100.00;101982.38;5063443;27;45541;-73
2023/09/03 02:19:19;;;;;;;;;2.00;2.00;;;;;23.53;100.00;101979.69;5054037;28;45464;-73
2023/09/03 02:21:45;;;;;;;;;3.00;3.00;;;;;23.53;100.00;101979.69;5060630;28;45530;-73
2023/09/03 02:24:10;;;;;;;;;2.00;2.00;;;;;23.52;100.00;101994.97;5063167;28;45617;-73
2023/09/03 02:26:43;;;;;;;;;4.00;2.00;;;;;23.50;100.00;101988.75;5059057;28;64102;-73
2023/09/03 02:29:09;;;;;;;;;6.00;3.00;;;;;23.50;100.00;101986.06;5052337;28;45407;-73
2023/09/03 02:31:34;;;;;;;;;4.00;2.00;;;;;23.51;100.00;101977.03;5051708;28;45761;-73
2023/09/03 02:34:00;;;;;;;;;3.00;3.00;;;;;23.50;100.00;101979.78;5061775;27;45404;-73
2023/09/03 02:36:25;;;;;;;;;8.00;4.00;;;;;23.50;100.00;101971.69;5055126;28;45739;-73
2023/09/03 02:39:01;;;;;;;;;3.67;2.67;;;;;23.51;100.00;101979.72;5065134;28;61064;-73
2023/09/03 02:41:27;;;;;;;;;4.67;3.00;;;;;23.48;100.00;101979.78;5056947;28;45557;-73
2023/09/03 02:43:52;;;;;;;;;4.00;3.00;;;;;23.47;100.00;101977.13;5054554;28;45526;-75
2023/09/03 02:46:18;;;;;;;;;3.00;3.00;;;;;23.46;100.00;101989.75;5053849;28;71791;-73
2023/09/03 02:48:43;;;;;;;;;5.00;3.00;;;;;23.47;100.00;101996.00;5056149;28;45414;-73
2023/09/03 02:51:08;;;;;;;;;3.00;3.00;;;;;23.47;100.00;102002.28;5060022;28;60528;-73
2023/09/03 02:53:34;;;;;;;;;2.33;2.33;;;;;23.46;100.00;102005.03;5064456;28;56900;-73
2023/09/03 02:55:59;;;;;;;;;2.00;2.00;;;;;23.43;100.00;102003.28;5064051;28;67289;-73
2023/09/03 02:58:25;;;;;;;;;2.00;2.00;;;;;23.43;100.00;102007.78;5042742;28;45719;-74
2023/09/03 03:00:50;;;;;;;;;4.00;3.00;;;;;23.40;100.00;101997.97;5061144;28;45827;-73
2023/09/03 03:03:15;;;;;;;;;3.67;2.67;;;;;23.40;100.00;102019.53;5051029;28;61776;-73
2023/09/03 03:05:41;;;;;;;;;2.67;2.67;;;;;23.38;100.00;102018.66;5048522;27;46349;-73
2023/09/03 03:08:08;;;;;;;;;3.00;3.00;;;;;23.39;100.00;102015.06;5059343;27;66798;-73
2023/09/03 03:10:33;;;;;;;;;2.00;2.00;;;;;23.37;100.00;102014.22;5059024;28;45493;-74
2023/09/03 03:12:59;;;;;;;;;2.33;2.33;;;;;23.39;100.00;102019.59;5063621;27;45476;-74
2023/09/03 03:15:24;;;;;;;;;2.33;2.33;;;;;23.37;100.00;102016.91;5052626;28;67770;-73
2023/09/03 03:17:49;;;;;;;;;3.67;3.00;;;;;23.38;100.00;102012.41;5053335;28;68302;-73
2023/09/03 03:20:15;;;;;;;;;3.00;3.00;;;;;23.40;100.00;102016.84;5056782;28;63299;-73
2023/09/03 03:22:40;;;;;;;;;1.33;1.33;;;;;23.36;100.00;102014.25;5057142;28;61634;-73
2023/09/03 03:25:06;;;;;;;;;3.00;3.00;;;;;23.37;100.00;102019.59;5058757;28;45409;-73
2023/09/03 03:27:31;;;;;;;;;2.33;2.00;;;;;23.37;100.00;102013.31;5052196;28;45824;-73
2023/09/03 03:29:56;;;;;;;;;3.33;3.33;;;;;23.35;100.00;102012.50;5049502;28;45445;-74
2023/09/03 03:32:22;;;;;;;;;3.00;3.00;;;;;23.35;100.00;102021.47;5044819;28;62162;-75
2023/09/03 03:34:47;;;;;;;;;3.67;3.00;;;;;23.36;100.00;102016.94;5059428;28;68229;-73
2023/09/03 03:37:12;;;;;;;;;3.00;3.00;;;;;23.34;100.00;102027.78;5057285;28;63194;-74
2023/09/03 03:39:37;;;;;;;;;3.33;3.33;;;;;23.35;100.00;102028.66;5052558;28;59678;-73
2023/09/03 03:42:03;;;;;;;;;3.00;3.00;;;;;23.30;100.00;102023.38;5060027;28;62094;-73
2023/09/03 03:44:28;;;;;;;;;3.00;3.00;;;;;23.31;100.00;102026.94;5059643;28;46509;-73
2023/09/03 03:46:54;;;;;;;;;3.00;3.00;;;;;23.31;100.00;102029.66;5054020;28;59648;-76
2023/09/03 03:49:19;;;;;;;;;2.67;2.00;;;;;23.31;100.00;102038.59;5056213;28;45698;-73
2023/09/03 03:51:44;;;;;;;;;3.00;3.00;;;;;23.34;100.00;102040.38;5053520;28;45573;-73
2023/09/03 03:54:10;;;;;;;;;3.33;3.33;;;;;23.32;100.00;102044.88;5056410;27;46413;-74
2023/09/03 03:56:35;;;;;;;;;4.67;3.00;;;;;23.30;100.00;102044.94;5047195;28;66249;-73
2023/09/03 03:59:00;;;;;;;;;3.00;3.00;;;;;23.30;100.00;102044.94;5054367;28;45436;-74
2023/09/03 04:01:26;;;;;;;;;3.00;3.00;;;;;23.31;100.00;102044.00;5054873;28;45501;-74
2023/09/03 04:03:52;;;;;;;;;3.00;3.00;;;;;23.30;100.00;102049.44;5059487;28;64735;-73
2023/09/03 04:06:18;;;;;;;;;4.00;4.00;;;;;23.27;100.00;102055.75;5052380;28;45498;-73
2023/09/03 04:08:44;;;;;;;;;3.00;3.00;;;;;23.26;100.00;102059.38;5057751;28;45481;-73
2023/09/03 04:11:12;;;;;;;;;5.00;3.00;;;;;23.21;100.00;102067.56;5051469;28;45438;-73
2023/09/03 04:13:38;;;;;;;;;3.00;3.00;;;;;23.24;100.00;102072.03;5055888;28;46682;-73
2023/09/03 04:16:13;;;;;;;;;4.00;4.00;;;;;23.22;100.00;102069.38;5059613;28;46148;-73
2023/09/03 04:18:39;;;;;;;;;3.00;3.00;;;;;23.22;100.00;102066.69;5057850;28;45487;-73
2023/09/03 04:21:04;;;;;;;;;4.33;3.33;;;;;23.19;100.00;102066.72;5061742;28;45654;-73
2023/09/03 04:23:30;;;;;;;;;3.00;3.00;;;;;23.20;100.00;102076.56;5064617;28;45879;-73
2023/09/03 04:25:58;;;;;;;;;5.00;4.00;;;;;23.20;100.00;102075.69;5053388;28;54714;-73
2023/09/03 04:28:24;;;;;;;;;3.67;2.33;;;;;23.19;100.00;102080.19;5056910;28;45584;-73
2023/09/03 04:30:54;;;;;;;;;2.67;2.67;;;;;23.25;100.00;102071.09;5061944;28;45311;-73
2023/09/03 04:33:20;;;;;;;;;4.33;4.33;;;;;23.22;100.00;102073.84;5058975;27;47507;-73
2023/09/03 04:35:45;;;;;;;;;4.33;4.33;;;;;23.19;100.00;102074.81;5052295;28;45440;-73
2023/09/03 04:38:11;;;;;;;;;2.33;2.33;;;;;23.17;100.00;102073.06;5062929;28;45500;-74
2023/09/03 04:40:37;;;;;;;;;3.00;3.00;;;;;23.17;100.00;102078.44;5058347;28;58051;-73
2023/09/03 04:43:05;;;;;;;;;3.00;3.00;;;;;23.14;100.00;102081.22;5058463;28;46521;-73
2023/09/03 04:45:31;;;;;;;;;4.00;4.00;;;;;23.16;100.00;102088.34;5055824;28;46021;-73
2023/09/03 04:47:58;;;;;;;;;5.00;5.00;;;;;23.11;100.00;102086.66;5051996;28;45535;-74
2023/09/03 04:50:24;;;;;;;;;4.00;4.00;;;;;23.07;100.00;102088.56;5059568;28;45719;-73
2023/09/03 04:52:49;;;;;;;;;3.67;3.67;;;;;23.05;100.00;102086.78;5045672;28;46279;-73
2023/09/03 04:55:15;;;;;;;;;3.00;3.00;;;;;22.99;100.00;102087.81;5064882;28;45472;-73
2023/09/03 04:57:41;;;;;;;;;5.33;4.00;;;;;22.97;100.00;102089.66;5059299;27;45585;-73
2023/09/03 05:00:07;;;;;;;;;8.33;4.33;;;;;22.92;100.00;102089.75;5064342;28;45608;-74
2023/09/03 05:02:33;;;;;;;;;5.00;4.00;;;;;22.91;100.00;102098.75;5047133;28;45666;-73
2023/09/03 05:04:59;;;;;;;;;4.00;4.00;;;;;22.88;100.00;102096.13;5188182;22;45543;-74
2023/09/03 05:07:24;;;;;;;;;5.67;5.00;;;;;22.87;100.00;102094.31;5071965;27;63258;-73
2023/09/03 05:09:53;;;;;;;;;5.33;3.67;;;;;22.87;100.00;102106.88;5062281;28;62393;-73
2023/09/03 05:12:18;;;;;;;;;3.67;3.67;;;;;22.84;100.00;102105.13;5068595;28;45898;-74
2023/09/03 05:14:44;;;;;;;;;4.67;4.33;;;;;22.85;100.00;102106.94;5069701;28;45434;-72
2023/09/03 05:17:09;;;;;;;;;4.00;4.00;;;;;22.85;100.00;102106.94;5071390;27;62930;-72
2023/09/03 05:19:34;;;;;;;;;4.33;4.33;;;;;22.79;100.00;102109.72;5066995;27;61759;-73
2023/09/03 05:22:00;;;;;;;;;4.00;4.00;;;;;22.72;100.00;102114.34;5065905;28;70663;-73
2023/09/03 05:24:25;;;;;;;;;4.00;4.00;;;;;22.71;100.00;102112.56;5067075;27;45514;-75
2023/09/03 05:26:50;;;;;;;;;3.67;3.67;;;;;22.73;100.00;102112.53;5068046;27;62151;-73
2023/09/03 05:29:16;;;;;;;;;4.67;4.67;;;;;22.74;100.00;102111.59;5070765;28;57284;-75
2023/09/03 05:31:41;;;;;;;;;3.67;3.00;;;;;22.76;100.00;102107.09;5072647;28;50346;-73
2023/09/03 05:34:06;;;;;;;;;5.00;5.00;;;;;22.71;100.00;102117.94;5060940;27;66172;-73
2023/09/03 05:36:32;;;;;;;;;7.33;6.33;;;;;22.72;100.00;102125.09;5065364;28;55555;-73
2023/09/03 05:38:58;;;;;;;;;4.00;4.00;;;;;22.73;100.00;102123.31;5072205;27;45592;-72
2023/09/03 05:41:23;;;;;;;;;5.00;5.00;;;;;22.73;100.00;102126.00;5059993;28;47207;-73
2023/09/03 05:43:52;;;;;;;;;4.00;4.00;;;;;22.75;100.00;102137.66;5072927;27;67741;-73
2023/09/03 05:46:17;;;;;;;;;5.67;4.00;;;;;22.75;100.00;102140.34;5073174;27;45544;-74
2023/09/03 05:48:43;;;;;;;;;7.00;5.00;;;;;22.80;100.00;102145.59;5072405;27;63233;-74
2023/09/03 05:51:08;;;;;;;;;5.67;5.67;;;;;22.80;100.00;102143.84;5064933;27;68784;-73
2023/09/03 05:53:33;;;;;;;;;6.00;6.00;;;;;22.83;100.00;102145.56;5066733;27;45460;-74
2023/09/03 05:56:09;;;;;;;;;5.00;5.00;;;;;22.83;100.00;102149.16;5065128;27;45519;-73
2023/09/03 05:58:35;;;;;;;;;5.00;5.00;;;;;22.84;100.00;102142.84;5066475;28;45519;-73
2023/09/03 06:01:05;;;;;;;;;5.67;5.67;;;;;22.86;100.00;102148.22;5070033;28;47173;-73
2023/09/03 06:03:30;;;;;;;;;6.00;5.00;;;;;22.88;100.00;102146.41;5070423;27;45544;-75
2023/09/03 06:05:55;;;;;;;;;4.67;4.67;;;;;22.90;100.00;102148.13;5064017;27;65764;-73
2023/09/03 06:08:21;;;;;;;;;8.00;7.00;;;;;22.93;100.00;102145.38;5062290;28;50979;-73
2023/09/03 06:10:46;;;;;;;;;4.00;4.00;;;;;22.96;100.00;102144.47;5060221;27;45786;-73
2023/09/03 06:13:12;;;;;;;;;5.33;4.67;;;;;23.02;100.00;102147.03;5064131;28;45491;-73
2023/09/03 06:15:37;;;;;;;;;7.00;7.00;;;;;23.07;100.00;102157.72;5068596;28;46209;-73
2023/09/03 06:18:02;;;;;;;;;6.00;5.00;;;;;23.09;100.00;102162.16;5070164;27;45717;-73
2023/09/03 06:20:28;;;;;;;;;4.00;4.00;;;;;23.10;100.00;102163.91;5063430;28;52997;-74
2023/09/03 06:22:53;;;;;;;;;6.00;6.00;;;;;23.12;100.00;102170.19;5063384;27;45787;-73
2023/09/03 06:25:18;;;;;;;;;4.00;4.00;;;;;23.12;100.00;102172.00;5068874;28;59351;-73
2023/09/03 06:27:44;;;;;;;;;4.00;4.00;;;;;23.11;100.00;102167.50;5067712;27;47976;-73
2023/09/03 06:30:10;;;;;;;;;4.33;4.33;;;;;23.15;100.00;102177.31;5060519;27;66874;-72
2023/09/03 06:32:36;;;;;;;;;5.00;5.00;;;;;23.14;100.00;102176.41;5065549;27;45429;-73
2023/09/03 06:35:03;;;;;;;;;4.00;4.00;;;;;23.11;100.00;102184.53;5066228;27;46886;-72
2023/09/03 06:37:28;;;;;;;;;6.00;6.00;;;;;23.14;100.00;102197.97;5061512;27;45627;-72
2023/09/03 06:39:53;;;;;;;;;4.00;4.00;;;;;23.14;100.00;102194.41;5062923;27;73399;-73
2023/09/03 06:42:19;;;;;;;;;4.00;4.00;;;;;23.16;100.00;102192.53;5067600;28;45414;-72
2023/09/03 06:44:44;;;;;;;;;4.00;4.00;;;;;23.20;100.00;102196.97;5062991;28;58007;-72
2023/09/03 06:47:09;;;;;;;;;5.00;5.00;;;;;23.24;100.00;102198.69;5067447;28;62810;-72
2023/09/03 06:49:35;;;;;;;;;5.00;5.00;;;;;23.27;100.00;102191.41;5067622;28;65518;-73
2023/09/03 06:52:00;;;;;;;;;5.33;5.33;;;;;23.33;100.00;102195.81;5067275;28;69077;-73
2023/09/03 06:54:25;;;;;;;;;4.00;4.00;;;;;23.41;100.00;102196.53;5063849;27;61231;-74
2023/09/03 06:56:51;;;;;;;;;6.00;5.00;;;;;23.46;100.00;102197.31;5063665;28;45521;-73
2023/09/03 06:59:16;;;;;;;;;6.00;6.00;;;;;23.49;100.00;102201.78;5065600;27;66748;-73
2023/09/03 07:01:41;;;;;;;;;1.00;1.00;;;;;23.56;100.00;102198.03;5063407;28;45503;-73
2023/09/03 07:04:07;;;;;;;;;3.33;3.33;;;;;23.64;100.00;102195.19;5057932;27;63385;-73
2023/09/03 07:06:32;;;;;;;;;3.00;3.00;;;;;23.72;100.00;102201.31;5062974;27;62172;-73
2023/09/03 07:08:57;;;;;;;;;6.67;4.00;;;;;23.76;100.00;102195.81;5066353;28;64433;-74
2023/09/03 07:11:23;;;;;;;;;3.33;3.33;;;;;23.87;100.00;102200.09;5065252;28;45435;-76
2023/09/03 07:13:49;;;;;;;;;5.00;4.00;;;;;23.89;100.00;102204.50;5069895;27;57713;-75
2023/09/03 07:16:14;;;;;;;;;3.00;3.00;;;;;23.96;100.00;102202.56;5071417;27;45570;-75
2023/09/03 07:18:40;;;;;;;;;3.67;3.67;;;;;23.99;100.00;102192.59;5066481;27;47916;-76
2023/09/03 07:21:06;;;;;;;;;3.00;3.00;;;;;24.04;100.00;102198.78;5060624;28;45477;-75
2023/09/03 07:23:32;;;;;;;;;6.00;4.00;;;;;24.07;100.00;102211.28;5059372;28;45414;-75
2023/09/03 07:26:06;;;;;;;;;5.00;4.00;;;;;24.14;100.00;102209.34;5070819;28;45400;-75
2023/09/03 07:28:33;;;;;;;;;5.33;4.00;;;;;24.21;100.00;102217.25;5059413;28;46735;-75
2023/09/03 07:30:58;;;;;;;;;4.00;4.00;;;;;24.25;100.00;102213.56;5069401;28;68666;-75
2023/09/03 07:33:24;;;;;;;;;3.33;3.00;;;;;24.28;100.00;102215.28;5066624;27;45410;-74
2023/09/03 07:35:49;;;;;;;;;3.00;3.00;;;;;24.32;100.00;102211.59;5065286;28;45640;-74
2023/09/03 07:38:14;;;;;;;;;4.00;4.00;;;;;24.39;100.00;102199.75;5062616;27;72718;-75
2023/09/03 07:40:40;;;;;;;;;3.67;3.67;;;;;24.40;100.00;102201.56;5062639;28;64634;-75
2023/09/03 07:43:05;;;;;;;;;2.33;2.33;;;;;24.47;100.00;102195.06;5066048;27;50829;-75
2023/09/03 07:45:30;;;;;;;;;4.00;4.00;;;;;24.51;100.00;102191.38;5067088;27;63338;-74
2023/09/03 07:47:56;;;;;;;;;4.67;3.00;;;;;24.59;100.00;102187.56;5065854;28;53449;-75
2023/09/03 07:50:21;;;;;;;;;3.00;3.00;;;;;24.56;100.00;102184.03;5066481;28;45574;-75
2023/09/03 07:52:47;;;;;;;;;4.00;2.67;;;;;24.61;100.00;102183.91;5065333;27;60257;-75
2023/09/03 07:55:12;;;;;;;;;3.00;3.00;;;;;24.68;100.00;102177.41;5069550;27;52598;-75
2023/09/03 07:57:37;;;;;;;;;3.00;3.00;;;;;24.73;100.00;102171.91;5063127;27;68698;-75
2023/09/03 08:00:04;;;;;;;;;6.33;4.00;;;;;24.77;100.00;102174.47;5062834;27;63890;-74
2023/09/03 08:02:29;;;;;;;;;5.33;4.00;;;;;24.78;100.00;102165.44;5055916;28;45972;-74
2023/09/03 08:04:55;;;;;;;;;4.33;3.67;;;;;24.80;100.00;102168.09;5058195;28;46647;-75
2023/09/03 08:07:20;;;;;;;;;4.00;4.00;;;;;24.83;100.00;102171.63;5062576;28;49394;-74
2023/09/03 08:09:46;;;;;;;;;4.33;4.00;;;;;24.87;100.00;102169.69;5062295;28;45519;-75
2023/09/03 08:12:11;;;;;;;;;4.00;4.00;;;;;24.99;100.00;102169.38;5062989;28;45658;-74
2023/09/03 08:14:37;;;;;;;;;5.00;4.00;;;;;24.99;100.00;102172.09;5062763;27;45441;-75
2023/09/03 08:17:03;;;;;;;;;3.33;3.33;;;;;25.03;100.00;102175.56;5062965;28;47387;-75
2023/09/03 08:19:28;;;;;;;;;2.00;2.00;;;;;25.07;100.00;102174.59;5060246;27;45568;-75
2023/09/03 08:21:54;;;;;;;;;4.00;4.00;;;;;25.11;100.00;102164.59;5062461;28;59532;-77
2023/09/03 08:24:19;;;;;;;;;4.00;4.00;;;;;25.20;100.00;102169.75;5061191;27;62886;-75
2023/09/03 08:26:44;;;;;;;;;2.33;2.33;;;;;25.23;100.00;102164.22;5068547;28;47726;-75
2023/09/03 08:29:10;;;;;;;;;3.00;3.00;;;;;25.29;100.00;102161.34;5065212;27;69050;-75
2023/09/03 08:31:36;;;;;;;;;3.00;3.00;;;;;25.38;100.00;102155.66;5063747;28;45585;-75
2023/09/03 08:34:01;;;;;;;;;2.67;2.67;;;;;25.47;100.00;102157.22;5060755;28;60869;-75
2023/09/03 08:36:26;;;;;;;;;3.33;3.33;;;;;25.48;100.00;102157.16;5065682;28;47337;-75
2023/09/03 08:38:52;;;;;;;;;3.00;3.00;;;;;25.54;100.00;102156.97;5060150;27;45564;-73
2023/09/03 08:41:18;;;;;;;;;2.33;2.33;;;;;25.60;100.00;102159.50;5064898;27;50028;-72
2023/09/03 08:43:47;;;;;;;;;6.00;3.00;;;;;25.68;100.00;102161.97;5063716;27;45590;-75
2023/09/03 08:46:14;;;;;;;;;4.33;4.00;;;;;25.74;100.00;102169.03;5063574;28;46484;-72
2023/09/03 08:48:40;;;;;;;;;3.00;3.00;;;;;25.81;100.00;102166.09;5065011;27;45349;-73
2023/09/03 08:51:05;;;;;;;;;3.00;1.00;;;;;25.89;100.00;102164.97;5066934;28;45609;-72
2023/09/03 08:53:34;;;;;;;;;2.67;2.67;;;;;25.95;100.00;102162.97;5060234;28;62094;-72
2023/09/03 08:55:59;;;;;;;;;3.00;3.00;;;;;26.01;100.00;102167.28;5063274;28;47186;-72
2023/09/03 08:58:24;;;;;;;;;2.00;2.00;;;;;26.11;100.00;102164.25;5063044;28;66552;-72
2023/09/03 09:00:50;;;;;;;;;3.00;3.00;;;;;26.18;100.00;102166.75;5060035;27;66767;-72
2023/09/03 09:03:16;;;;;;;;;4.67;3.00;;;;;26.24;100.00;102164.72;5063169;28;60906;-72
2023/09/03 09:05:42;;;;;;;;;2.33;2.33;;;;;26.31;100.00;102165.38;5067888;28;70334;-72
2023/09/03 09:08:07;;;;;;;;;3.00;3.00;;;;;26.40;100.00;102167.78;5066967;27;45419;-72
2023/09/03 09:10:37;;;;;;;;;2.00;2.00;;;;;26.48;100.00;102165.75;5066445;27;45427;-72
2023/09/03 09:13:02;;;;;;;;;2.00;2.00;;;;;26.56;100.00;102158.22;5063835;28;45590;-73
2023/09/03 09:15:27;;;;;;;;;3.00;3.00;;;;;26.62;100.00;102167.97;5063839;27;46037;-72
2023/09/03 09:17:53;;;;;;;;;2.00;2.00;;;;;26.69;100.00;102166.84;5064512;27;45464;-72
2023/09/03 09:20:19;;;;;;;;;2.33;2.00;;;;;26.80;100.00;102171.88;5065429;28;64812;-72
2023/09/03 09:22:49;;;;;;;;;2.67;2.67;;;;;26.89;100.00;102171.53;5066974;28;45627;-72
2023/09/03 09:25:22;;;;;;;;;3.00;3.00;;;;;26.98;100.00;102173.91;5060071;28;47026;-73
2023/09/03 09:27:48;;;;;;;;;2.00;2.00;;;;;27.05;100.00;102164.59;5068040;28;45732;-72
2023/09/03 09:30:16;;;;;;;;;2.33;2.33;;;;;27.10;100.00;102165.34;5070406;28;45369;-72
2023/09/03 09:32:43;;;;;;;;;3.00;3.00;;;;;27.22;100.00;102165.84;5072962;28;46356;-72
2023/09/03 09:35:09;;;;;;;;;2.67;2.67;;;;;27.32;100.00;102167.25;5070758;27;47066;-72
2023/09/03 09:37:39;;;;;;;;;2.67;2.67;;;;;27.36;100.00;102169.81;5068013;27;45533;-73
2023/09/03 09:40:05;;;;;;;;;2.00;2.00;;;;;27.46;100.00;102167.63;5063098;28;45448;-74
2023/09/03 09:42:31;;;;;;;;;3.33;3.33;;;;;27.52;100.00;102170.09;5069059;27;45446;-74
2023/09/03 09:44:59;;;;;;;;;4.00;4.00;;;;;27.60;100.00;102173.41;5065580;28;64680;-74
2023/09/03 09:47:25;;;;;;;;;4.67;3.00;;;;;27.66;100.00;102172.28;5061734;27;45898;-73
2023/09/03 09:49:50;;;;;;;;;3.67;3.00;;;;;27.72;100.00;102176.63;5066986;27;45812;-73
2023/09/03 09:52:16;;;;;;;;;2.00;2.00;;;;;27.80;100.00;102175.34;5064242;28;45630;-73
2023/09/03 09:54:42;;;;;;;;;4.67;3.00;;;;;27.87;100.00;102165.16;5063909;28;46509;-74
2023/09/03 09:57:11;;;;;;;;;3.67;3.67;;;;;27.90;100.00;102165.03;5067879;27;45760;-73
2023/09/03 09:59:36;;;;;;;;;2.67;2.67;;;;;27.97;100.00;102161.13;5065042;28;45501;-74
2023/09/03 10:02:12;;;;;;;;;3.33;3.33;;;;;28.05;100.00;102163.53;5065686;27;45497;-74
2023/09/03 10:04:42;;;;;;;;;3.00;3.00;;;;;28.13;100.00;102162.28;5059179;28;46459;-73
2023/09/03 10:07:08;;;;;;;;;2.67;2.67;;;;;28.17;100.00;102158.44;5064704;27;45413;-73
2023/09/03 10:09:37;;;;;;;;;2.00;2.00;;;;;28.26;100.00;102154.47;5062770;28;45460;-74
2023/09/03 10:12:06;;;;;;;;;3.33;3.00;;;;;28.33;100.00;102156.00;5063272;27;45712;-73
2023/09/03 10:14:31;;;;;;;;;3.00;3.00;;;;;28.38;100.00;102151.25;5067515;27;46264;-73
2023/09/03 10:17:00;;;;;;;;;3.00;3.00;;;;;28.46;100.00;102148.25;5061681;27;45457;-72
2023/09/03 10:19:34;;;;;;;;;2.67;2.67;;;;;28.52;100.00;102145.25;5065556;28;45530;-77
2023/09/03 10:22:01;;;;;;;;;4.00;4.00;;;;;28.58;100.00;102144.09;5057905;28;45493;-76
2023/09/03 10:24:28;;;;;;;;;4.00;4.00;;;;;28.70;100.00;102146.28;5066189;28;48148;-78
2023/09/03 10:26:57;;;;;;;;;4.00;4.00;;;;;28.81;100.00;102140.34;5065798;27;67508;-76
2023/09/03 10:29:23;;;;;;;;;4.67;4.67;;;;;28.91;100.00;102145.31;5068232;27;45452;-77
2023/09/03 10:31:50;;;;;;;;;5.33;4.00;;;;;29.03;100.00;102146.66;5056606;28;45418;-77
2023/09/03 10:34:15;;;;;;;;;5.67;4.67;;;;;29.14;100.00;102140.72;5056038;28;71423;-75
2023/09/03 10:37:10;;;;;;;;;5.33;3.00;;;;;29.27;100.00;102146.47;5066335;28;49954;-76
2023/09/03 10:39:37;;;;;;;;;4.00;4.00;;;;;29.43;100.00;102142.06;5063088;28;45549;-76
2023/09/03 10:42:17;;;;;;;;;4.33;4.33;;;;;29.54;100.00;102149.75;5062581;27;45610;-76
2023/09/03 10:44:58;;;;;;;;;6.00;4.33;;;;;29.67;100.00;102149.09;5065869;28;46443;-76
2023/09/03 10:47:24;;;;;;;;;4.00;4.00;;;;;29.75;100.00;102149.59;5071695;28;45448;-78
2023/09/03 10:49:51;;;;;;;;;6.33;5.00;;;;;29.86;100.00;102148.19;5059570;28;45580;-80
2023/09/03 10:52:26;;;;;;;;;4.00;4.00;;;;;29.98;100.00;102150.31;5067862;27;45613;-77
2023/09/03 10:55:20;;;;;;;;;25.00;23.33;;;;;30.11;100.00;102150.59;5071555;27;45989;-78
2023/09/03 10:58:10;;;;;;;;;52.00;42.25;;;;;30.17;100.00;102151.19;5068480;28;45940;-78
2023/09/03 11:00:35;;;;;;;;;307.25;284.25;;;;;30.24;100.00;102149.91;5061561;28;46089;-79
2023/09/03 11:03:30;;;;;;;;;708.00;613.80;;;;;30.32;100.00;102151.41;5061374;27;45404;-77
2023/09/03 11:06:18;;;;;;;;;309.00;280.50;;;;;30.41;100.00;102150.91;5051541;28;46449;-78
2023/09/03 11:08:45;;;;;;;;;172.25;160.50;;;;;30.45;100.00;102152.50;5065287;28;46197;-77
2023/09/03 11:11:11;;;;;;;;;250.75;227.00;;;;;30.57;100.00;102145.53;5068947;27;45622;-76
2023/09/03 11:13:36;;;;;;;;;157.75;150.00;;;;;30.66;100.00;102143.22;5066978;28;45774;-79
2023/09/03 11:16:02;;;;;;;;;359.50;335.75;;;;;30.75;100.00;102136.44;5064923;27;46310;-79